LIBDLIPZ

Guest
Details From LIBD - Bari Palese Macchie
To LIPZ - Venezia Tessera
Flight Number -
Tags decoded
Created
Modified
Stats Distance 334 nm / 618 km
Max Altitude 0 ft / 0 m
Waypoints 6
Social Downloads 0
Likes 0
Share VATSIM

Download

Looking for another format? Having issues loading an existing format? Contact us
Advertisement - Login to hide

Notes

Requested: LIBD VIE DIPEP LISKO CHI LIPZ

Route

LIBD VIE DIPEP LISKO CHI LIPZ

ID Type Via Altitude Latitude Longitude Leg Dist Tot Dist Heading (true) Name
O LIBD APT - 0 ft / 0 m 41.13787˚ 16.75832˚ - 0 nm - Bari Palese Macchie
VIE VOR - 0 ft / 0 m 41.91274˚ 16.04914˚ 56 nm 56 nm 326° / 325° VIESTE VOR-DME
DIPEP FIX - 0 ft / 0 m 43.34167˚ 14.49194˚ 109 nm 166 nm 322° / 321° -
LISKO FIX - 0 ft / 0 m 43.57139˚ 14.13222˚ 20 nm 187 nm 311° / 311° -
CHI NDB - 0 ft / 0 m 45.07167˚ 12.28139˚ 120 nm 307 nm 319° / 318° CHIOGGIA NDB
O LIPZ APT - 0 ft / 0 m 45.50479˚ 12.34969˚ 26 nm 333 nm 6° / 6° Venezia Tessera

Altitude Profile

Advertisement - Login to hide

Weather


0- 5 10 15 20 25 30 35+ Temperature / ° C

Clouds and Precipitation
Forecast for 2017-12-17 00:00 UTC. Updated an hour ago

Ground ~20,000 ft ~40,000 ft Winds

LIBD

Details ICAO LIBD (BRI)
Name Bari Palese Macchie
Region Italy
Timezone Europe/Rome (UTC+1.0)
Stats Elevation 177 ft / 54 m (AMSL)
Location 41.137865° 16.758318°
Runways 1
Magnetic Variation 3.738° E

METAR

LIBD 162350Z 25003KT 210V270 CAVOK 08/04 Q1008

Decode

TAF

TAF LIBD 162300Z 1700/1724 VRB05KT 9999 SCT030 BECMG 1704/1706 30015G25KT

Decode

Departure Runways

ID Width Length Bearing (true) Bearing (mag) Surface Threshold Offset Overrun Length
07 148 ft / 45 m 9,262 ft / 2,823 m 69.39° 65.65° Asphalt 1,257 ft / 383 m 0 ft / 0 m
25 148 ft / 45 m 9,262 ft / 2,823 m 249.42° 245.68° Asphalt 0 ft / 0 m 194 ft / 59 m

LIPZ

Details ICAO LIPZ (VCE)
Name Venezia Tessera
Region Italy
Timezone Europe/Rome (UTC+1.0)
Stats Elevation 7 ft / 2 m (AMSL)
Location 45.504791° 12.349691°
Runways 2
Magnetic Variation 3.180° E

METAR

LIPZ 162350Z 33007KT CAVOK 01/M00 Q1013 NOSIG

Decode

TAF

TAF LIPZ 162300Z 1700/1806 02007KT CAVOK TEMPO 1700/1706 3000 BR

Decode

Destination Runways

ID Width Length Bearing (true) Bearing (mag) Surface Threshold Offset Overrun Length
04L 148 ft / 45 m 9,112 ft / 2,777 m 42.01° 38.83° Asphalt 312 ft / 95 m 0 ft / 0 m
04R 148 ft / 45 m 10,834 ft / 3,302 m 41.99° 38.81° Asphalt 0 ft / 0 m 0 ft / 0 m
22L 148 ft / 45 m 10,834 ft / 3,302 m 222.01° 218.83° Asphalt 0 ft / 0 m 0 ft / 0 m
22R 148 ft / 45 m 9,112 ft / 2,777 m 222.02° 218.84° Asphalt 0 ft / 0 m 0 ft / 0 m

Approach Navaids

Runway Type Ident Frequency Range Bearing (true) Bearing (mag) Slope Elevation
04R Localiser VTS 109.95 MHz 18 nm / 33 km 42.02° 38.84° - 13 ft / 4 m (AMSL)
04R Glidescope VTS 109.95 MHz 10 nm / 19 km 42.00° 38.82° 3.00° 52 ft / 16 m (AMSL)
04R DME VTS 109.95 MHz 18 nm / 33 km - - - 26 ft / 8 m (AMSL)

Popular Alternatives